Time;durP1;ratioP1;P1;durP2;ratioP2;P2;SDS_P1;SDS_P2;PMS_P1;PMS_P2;Temp;Humidity;BMP_temperature;BMP_pressure;BME280_temperature;BME280_humidity;BME280_pressure;Samples;Min_cycle;Max_cycle;Signal;HPM_P1;HPM_P2
2023/03/22 00:01:32;;;;;;;19.33;11.02;;;;;;;;;;5036960;28;20753;-79
2023/03/22 00:03:58;;;;;;;18.75;9.75;;;;;;;;;;5056162;28;20514;-80
2023/03/22 00:06:25;;;;;;;19.88;10.60;;;;;;;;;;5035158;28;20419;-80
2023/03/22 00:08:52;;;;;;;16.65;9.45;;;;;;;;;;5053781;28;20415;-79
2023/03/22 00:11:24;;;;;;;16.40;9.05;;;;;;;;;;5055157;28;20972;-79
2023/03/22 00:13:51;;;;;;;16.90;8.95;;;;;;;;;;5036630;28;20415;-80
2023/03/22 00:16:17;;;;;;;14.20;8.13;;;;;;;;;;5037823;28;20423;-79
2023/03/22 00:18:44;;;;;;;15.63;8.43;;;;;;;;;;5054960;28;20472;-80
2023/03/22 00:21:12;;;;;;;15.93;7.72;;;;;;;;;;5057262;28;20430;-79
2023/03/22 00:23:38;;;;;;;16.15;7.43;;;;;;;;;;5053884;28;20411;-79
2023/03/22 00:26:04;;;;;;;15.32;6.65;;;;;;;;;;5022421;28;20564;-79
2023/03/22 00:28:30;;;;;;;14.25;6.65;;;;;;;;;;5021745;28;20411;-79
2023/03/22 00:31:00;;;;;;;14.75;7.05;;;;;;;;;;5054488;28;20748;-79
2023/03/22 00:33:30;;;;;;;14.90;6.60;;;;;;;;;;5053335;28;20510;-80
2023/03/22 00:35:58;;;;;;;18.75;7.20;;;;;;;;;;5055577;28;20842;-79
2023/03/22 00:38:25;;;;;;;13.52;6.32;;;;;;;;;;5037887;28;20768;-80
2023/03/22 00:40:51;;;;;;;14.80;6.45;;;;;;;;;;5037892;28;20426;-79
2023/03/22 00:43:17;;;;;;;10.82;6.00;;;;;;;;;;5038193;28;20416;-79
2023/03/22 00:45:43;;;;;;;16.48;6.70;;;;;;;;;;5052626;28;20424;-80
2023/03/22 00:48:10;;;;;;;17.05;6.40;;;;;;;;;;5067901;28;20759;-79
2023/03/22 00:50:37;;;;;;;14.90;5.97;;;;;;;;;;5039208;28;20775;-80
2023/03/22 00:53:04;;;;;;;13.45;6.07;;;;;;;;;;5053952;28;20419;-80
2023/03/22 00:55:30;;;;;;;13.93;5.75;;;;;;;;;;5055086;28;20416;-80
2023/03/22 00:57:57;;;;;;;12.13;5.05;;;;;;;;;;5026425;28;20761;-80
2023/03/22 01:00:23;;;;;;;10.70;5.38;;;;;;;;;;5054837;28;20511;-79
2023/03/22 01:02:52;;;;;;;12.50;5.07;;;;;;;;;;5054124;28;20426;-79
2023/03/22 01:05:20;;;;;;;11.82;4.07;;;;;;;;;;5037963;28;20438;-80
2023/03/22 01:07:49;;;;;;;10.70;4.63;;;;;;;;;;5047696;28;20420;-79
2023/03/22 01:10:15;;;;;;;10.85;4.25;;;;;;;;;;5054525;28;20477;-79
2023/03/22 01:12:41;;;;;;;12.48;3.80;;;;;;;;;;5053497;28;20415;-79
2023/03/22 01:15:08;;;;;;;10.40;3.92;;;;;;;;;;5037045;28;20415;-79
2023/03/22 01:17:34;;;;;;;12.07;3.67;;;;;;;;;;5037630;28;20568;-80
2023/03/22 01:20:00;;;;;;;10.77;4.13;;;;;;;;;;5054132;28;20509;-79
2023/03/22 01:22:27;;;;;;;11.13;3.33;;;;;;;;;;5038910;28;20423;-79
2023/03/22 01:24:53;;;;;;;11.48;2.92;;;;;;;;;;5031418;28;20420;-79
2023/03/22 01:27:19;;;;;;;9.45;2.97;;;;;;;;;;5036199;28;20956;-79
2023/03/22 01:29:45;;;;;;;9.35;3.60;;;;;;;;;;5050515;28;20782;-79
2023/03/22 01:32:11;;;;;;;10.63;2.80;;;;;;;;;;5037737;28;20408;-79
2023/03/22 01:34:37;;;;;;;11.02;3.20;;;;;;;;;;5012458;28;20955;-80
2023/03/22 01:37:03;;;;;;;8.07;2.83;;;;;;;;;;5052026;28;20783;-79
2023/03/22 01:39:30;;;;;;;11.85;2.80;;;;;;;;;;5038890;28;20400;-79
2023/03/22 01:41:56;;;;;;;9.02;2.78;;;;;;;;;;5029956;28;20874;-79
2023/03/22 01:44:23;;;;;;;11.02;2.67;;;;;;;;;;5036611;28;20468;-79
2023/03/22 01:46:50;;;;;;;9.93;2.75;;;;;;;;;;5017674;28;20528;-79
2023/03/22 01:49:25;;;;;;;10.00;3.45;;;;;;;;;;5038853;28;20407;-80
2023/03/22 01:51:52;;;;;;;13.43;2.90;;;;;;;;;;5036562;28;20970;-79
2023/03/22 01:54:29;;;;;;;11.00;2.92;;;;;;;;;;5055165;28;20415;-79
2023/03/22 01:56:55;;;;;;;9.07;2.58;;;;;;;;;;5051462;28;20867;-79
2023/03/22 01:59:22;;;;;;;8.75;2.75;;;;;;;;;;5050696;28;20423;-79
2023/03/22 02:01:48;;;;;;;10.45;2.83;;;;;;;;;;5050740;28;20424;-79
2023/03/22 02:04:22;;;;;;;10.70;3.03;;;;;;;;;;5038761;28;20408;-79
2023/03/22 02:06:52;;;;;;;9.23;2.42;;;;;;;;;;5049865;28;20430;-79
2023/03/22 02:09:20;;;;;;;8.25;2.58;;;;;;;;;;5052573;28;20419;-79
2023/03/22 02:12:07;;;;;;;8.13;2.28;;;;;;;;;;5053903;28;20563;-79
2023/03/22 02:14:54;;;;;;;9.02;2.25;;;;;;;;;;5036496;28;20478;-79
2023/03/22 02:17:28;;;;;;;10.20;2.72;;;;;;;;;;5033726;28;20428;-79
2023/03/22 02:20:09;;;;;;;10.05;2.53;;;;;;;;;;5053965;28;20450;-79
2023/03/22 02:22:41;;;;;;;10.27;2.73;;;;;;;;;;5052652;28;20560;-79
2023/03/22 02:25:27;;;;;;;9.68;2.28;;;;;;;;;;5053158;28;20494;-79
2023/03/22 02:28:05;;;;;;;13.35;3.35;;;;;;;;;;5052001;28;20427;-79
2023/03/22 02:30:34;;;;;;;9.47;2.23;;;;;;;;;;5052713;28;20415;-79
2023/03/22 02:33:19;;;;;;;10.43;2.65;;;;;;;;;;5051037;28;20982;-79
2023/03/22 02:36:18;;;;;;;10.85;2.45;;;9.80;99.90;;;;;;5029954;28;20411;-79
2023/03/22 02:38:44;;;;;;;10.23;2.40;;;;;;;;;;5031277;28;20432;-79
2023/03/22 02:41:10;;;;;;;13.60;2.65;;;;;;;;;;5034165;28;20483;-79
2023/03/22 02:43:40;;;;;;;9.40;2.20;;;;;;;;;;5047484;28;20420;-78
2023/03/22 02:46:13;;;;;;;10.75;2.60;;;;;;;;;;5051759;28;20426;-78
2023/03/22 02:48:49;;;;;;;11.50;2.60;;;;;;;;;;5051743;28;20420;-78
2023/03/22 02:51:21;;;;;;;9.70;2.45;;;;;;;;;;5050127;28;20423;-78
2023/03/22 02:53:53;;;;;;;12.77;2.85;;;;;;;;;;5036179;28;20430;-78
2023/03/22 02:56:25;;;;;;;11.05;2.80;;;;;;;;;;5051733;28;20459;-78
2023/03/22 02:58:52;;;;;;;9.00;2.47;;;;;;;;;;5033253;28;20415;-78
2023/03/22 03:01:25;;;;;;;11.07;2.72;;;;;;;;;;5052139;28;20419;-79
2023/03/22 03:03:54;;;;;;;9.07;2.50;;;;;;;;;;5052224;28;20507;-78
2023/03/22 03:06:21;;;;;;;11.30;3.00;;;;;;;;;;5036257;28;20415;-79
2023/03/22 03:08:52;;;;;;;10.75;2.53;;;;;;;;;;5050360;28;20469;-78
2023/03/22 03:11:19;;;;;;;11.70;2.50;;;;;;;;;;5052883;28;20452;-78
2023/03/22 03:13:48;;;;;;;12.23;2.93;;;;;;;;;;5050581;28;20416;-78
2023/03/22 03:16:19;;;;;;;8.13;2.97;;;9.80;99.90;;;;;;5018809;28;20908;-78
2023/03/22 03:18:57;;;;;;;9.90;2.90;;;;;;;;;;5051324;28;20421;-78
2023/03/22 03:21:31;;;;;;;12.05;3.20;;;;;;;;;;5050817;28;20427;-78
2023/03/22 03:24:03;;;;;;;8.77;2.65;;;;;;;;;;5051740;28;20447;-79
2023/03/22 03:26:32;;;;;;;9.38;2.92;;;;;;;;;;5017618;28;20394;-78
2023/03/22 03:29:01;;;;;;;10.63;3.13;;;;;;;;;;5043046;28;20455;-79
2023/03/22 03:31:31;;;;;;;12.82;3.17;;;;;;;;;;5051975;28;20419;-78
2023/03/22 03:33:59;;;;;;;12.35;3.45;;;;;;;;;;5036015;28;20549;-79
2023/03/22 03:36:26;;;;;;;10.38;2.67;;;;;;;;;;5035063;28;20470;-79
2023/03/22 03:38:54;;;;;;;10.07;2.80;;;;;;;;;;5034497;28;20462;-79
2023/03/22 03:41:24;;;;;;;9.10;3.40;;;9.70;99.90;;;;;;5053348;28;20469;-79
2023/03/22 03:43:52;;;;;;;11.45;3.20;;;;;;;;;;5033555;28;20919;-78
2023/03/22 03:46:18;;;;;;;11.52;3.03;;;;;;;;;;5047237;28;20490;-79
2023/03/22 03:48:48;;;;;;;13.07;3.60;;;9.50;99.90;;;;;;5044207;28;20818;-79
2023/03/22 03:51:14;;;;;;;12.25;3.08;;;;;;;;;;5054442;28;20419;-79
2023/03/22 03:53:40;;;;;;;9.05;3.10;;;;;;;;;;5041382;28;20487;-79
2023/03/22 03:56:07;;;;;;;7.63;3.00;;;;;;;;;;5054695;28;20426;-79
2023/03/22 03:58:33;;;;;;;10.20;3.47;;;;;;;;;;5039105;28;20420;-79
2023/03/22 04:00:59;;;;;;;9.45;3.30;;;;;;;;;;5039694;28;20424;-79
2023/03/22 04:03:25;;;;;;;10.98;3.17;;;;;;;;;;5016519;28;20427;-79
2023/03/22 04:05:51;;;;;;;14.02;3.88;;;;;;;;;;5048828;28;20895;-79
2023/03/22 04:08:17;;;;;;;10.13;2.80;;;;;;;;;;5024937;28;20467;-79
2023/03/22 04:10:48;;;;;;;8.10;2.85;;;;;;;;;;5038171;28;20414;-79
2023/03/22 04:13:14;;;;;;;12.77;3.78;;;;;;;;;;5039705;28;20933;-79
2023/03/22 04:15:40;;;;;;;11.93;3.63;;;;;;;;;;5039785;28;20443;-79
2023/03/22 04:18:08;;;;;;;10.88;3.15;;;;;;;;;;5035585;28;20506;-79
2023/03/22 04:20:34;;;;;;;9.32;3.28;;;;;;;;;;5037991;28;20424;-79
2023/03/22 04:23:00;;;;;;;11.73;3.00;;;;;;;;;;5057112;28;20399;-79
2023/03/22 04:25:29;;;;;;;11.33;3.57;;;;;;;;;;5040048;28;20538;-78
2023/03/22 04:27:55;;;;;;;11.75;3.28;;;;;;;;;;5021411;28;20425;-78
2023/03/22 04:30:21;;;;;;;9.77;3.70;;;;;;;;;;5053020;28;20419;-79
2023/03/22 04:32:48;;;;;;;11.95;3.70;;;;;;;;;;5055655;28;20907;-79
2023/03/22 04:35:14;;;;;;;12.25;4.07;;;;;;;;;;5040319;28;20400;-79
2023/03/22 04:37:41;;;;;;;11.30;4.05;;;;;;;;;;5038985;28;20498;-79
2023/03/22 04:40:08;;;;;;;14.25;4.68;;;;;;;;;;5052447;28;20500;-79
2023/03/22 04:42:35;;;;;;;11.57;4.25;;;;;;;;;;5053393;28;20422;-78
2023/03/22 04:45:02;;;;;;;12.38;5.00;;;;;;;;;;5040577;28;20422;-78
2023/03/22 04:47:29;;;;;;;13.00;5.40;;;;;;;;;;5039188;28;20420;-78
2023/03/22 04:49:56;;;;;;;13.10;5.30;;;;;;;;;;5040237;28;20416;-79
2023/03/22 04:52:22;;;;;;;14.60;5.43;;;;;;;;;;5021530;28;20818;-78
2023/03/22 04:54:48;;;;;;;11.82;5.32;;;;;;;;;;5055694;28;20455;-78
2023/03/22 04:57:14;;;;;;;12.60;5.57;;;;;;;;;;5053497;28;20427;-78
2023/03/22 04:59:40;;;;;;;15.52;6.50;;;;;;;;;;5054592;28;20833;-78
2023/03/22 05:02:06;;;;;;;16.80;6.90;;;;;;;;;;5051225;28;20424;-78
2023/03/22 05:04:32;;;;;;;13.50;7.00;;;;;;;;;;5039659;28;20404;-78
2023/03/22 05:06:58;;;;;;;13.32;6.63;;;;;;;;;;5055381;28;20415;-78
2023/03/22 05:09:25;;;;;;;17.63;7.50;;;;;;;;;;5052972;28;20763;-78
2023/03/22 05:11:51;;;;;;;15.50;7.65;;;;;;;;;;5054292;28;20470;-78
2023/03/22 05:14:17;;;;;;;15.33;7.57;;;;;;;;;;5054154;28;20568;-77
2023/03/22 05:16:43;;;;;;;15.98;7.72;;;;;;;;;;5038663;28;20408;-78
2023/03/22 05:19:12;;;;;;;15.00;8.35;;;;;;;;;;5034406;28;20463;-78
2023/03/22 05:21:40;;;;;;;13.70;8.05;;;;;;;;;;5031588;28;20500;-78
2023/03/22 05:24:06;;;;;;;16.77;9.15;;;;;;;;;;5054254;28;20415;-78
2023/03/22 05:26:36;;;;;;;16.80;8.68;;;;;;;;;;5052657;28;20503;-78
2023/03/22 05:29:02;;;;;;;14.18;8.30;;;;;;;;;;5052657;28;20473;-78
2023/03/22 05:31:29;;;;;;;18.02;9.25;;;;;;;;;;5035165;28;20419;-78
2023/03/22 05:33:55;;;;;;;17.17;9.23;;;;;;;;;;5054596;28;20472;-78
2023/03/22 05:36:22;;;;;;;18.08;8.80;;;;;;;;;;5053826;28;20455;-78
2023/03/22 05:38:49;;;;;;;16.33;9.43;;;;;;;;;;5053549;28;20419;-78
2023/03/22 05:41:15;;;;;;;17.75;9.50;;;;;;;;;;5027879;28;20509;-78
2023/03/22 05:43:41;;;;;;;17.88;9.48;;;;;;;;;;5034854;28;20412;-78
2023/03/22 05:46:08;;;;;;;18.92;9.82;;;;;;;;;;5051378;28;20489;-78
2023/03/22 05:48:35;;;;;;;18.95;10.13;;;;;;;;;;5039977;28;20419;-78
2023/03/22 05:51:02;;;;;;;18.05;9.70;;;;;;;;;;5032777;28;20417;-78
2023/03/22 05:53:28;;;;;;;18.17;10.23;;;;;;;;;;5012891;28;20423;-78
2023/03/22 05:55:59;;;;;;;17.23;9.77;;;;;;;;;;5037567;28;20517;-79
2023/03/22 05:58:27;;;;;;;17.90;10.77;;;;;;;;;;5032439;28;20442;-79
2023/03/22 06:00:54;;;;;;;17.55;10.35;;;;;;;;;;5035569;28;20558;-79
2023/03/22 06:03:21;;;;;;;18.23;10.93;;;;;;;;;;5050952;28;20426;-78
2023/03/22 06:05:49;;;;;;;19.27;10.95;;;;;;;;;;5037411;28;20782;-79
2023/03/22 06:08:16;;;;;;;17.13;10.95;;;;;;;;;;5037884;28;20422;-78
2023/03/22 06:10:42;;;;;;;19.60;11.65;;;;;;;;;;5033710;28;20450;-78
2023/03/22 06:13:08;;;;;;;21.10;12.23;;;;;;;;;;5012099;28;20835;-78
2023/03/22 06:15:34;;;;;;;19.15;10.43;;;;;;;;;;5032449;28;20530;-78
2023/03/22 06:18:00;;;;;;;19.73;11.13;;;;;;;;;;5035672;28;20458;-78
2023/03/22 06:20:26;;;;;;;20.23;13.15;;;;;;;;;;5026317;28;20920;-77
2023/03/22 06:22:52;;;;;;;18.77;11.27;;;;;;;;;;5030990;28;20416;-77
2023/03/22 06:25:18;;;;;;;18.83;10.52;;;;;;;;;;5031868;28;20851;-78
2023/03/22 06:27:44;;;;;;;18.95;10.60;;;;;;;;;;5054742;28;20430;-78
2023/03/22 06:30:10;;;;;;;21.07;11.00;;;;;;;;;;5031364;28;20481;-77
2023/03/22 06:32:37;;;;;;;17.45;10.80;;;;;;;;;;5035643;28;20427;-77
2023/03/22 06:35:03;;;;;;;20.60;11.63;;;;;;;;;;5035754;28;20423;-77
2023/03/22 06:37:29;;;;;;;20.50;11.27;;;;;;;;;;5021550;28;20408;-78
2023/03/22 06:39:55;;;;;;;20.17;11.48;;;;;;;;;;5050929;28;20434;-77
2023/03/22 06:42:21;;;;;;;20.60;11.43;;;;;;;;;;5054223;28;20875;-77
2023/03/22 06:44:47;;;;;;;18.23;10.40;;;;;;;;;;5034491;28;20418;-77
2023/03/22 06:47:13;;;;;;;17.25;10.63;;;;;;;;;;5050716;28;20496;-78
2023/03/22 06:49:40;;;;;;;17.60;10.27;;;;;;;;;;5052335;28;20827;-77
2023/03/22 06:52:06;;;;;;;22.00;11.57;;;;;;;;;;5036230;28;20854;-77
2023/03/22 06:54:32;;;;;;;18.80;10.93;;;;;;;;;;5031011;28;20491;-77
2023/03/22 06:56:58;;;;;;;15.13;10.25;;;;;;;;;;5035712;28;20423;-76
2023/03/22 06:59:24;;;;;;;21.15;10.27;;;;;;;;;;5037172;28;20437;-77
2023/03/22 07:01:50;;;;;;;19.05;10.63;;;;;;;;;;5035767;28;20420;-77
2023/03/22 07:04:16;;;;;;;17.85;10.02;;;;;;;;;;5050902;28;20423;-77
2023/03/22 07:06:42;;;;;;;17.98;10.68;;;;;;;;;;5034920;28;20887;-77
2023/03/22 07:09:09;;;;;;;17.23;9.60;;;;;;;;;;5036761;28;20415;-77
2023/03/22 07:11:35;;;;;;;15.77;9.43;;;;;;;;;;5050622;28;20431;-77
2023/03/22 07:14:01;;;;;;;15.00;9.17;;;;;;;;;;5052999;28;20756;-77
2023/03/22 07:16:27;;;;;;;14.63;8.82;;;;;;;;;;5034772;28;20772;-77
2023/03/22 07:18:54;;;;;;;15.23;9.27;;;;;;;;;;5050217;28;20775;-77
2023/03/22 07:21:21;;;;;;;17.33;9.27;;;;;;;;;;5033606;28;20469;-77
2023/03/22 07:23:47;;;;;;;18.23;9.40;;;;;;;;;;5051369;28;20430;-76
2023/03/22 07:26:13;;;;;;;15.50;8.63;;;;;;;;;;5051137;28;20422;-77
2023/03/22 07:28:40;;;;;;;16.83;9.30;;;;;;;;;;5051379;28;20487;-77
2023/03/22 07:31:10;;;;;;;13.68;8.30;;;11.00;99.90;;;;;;5035433;28;20529;-77
2023/03/22 07:33:36;;;;;;;15.52;8.60;;;;;;;;;;5045679;28;20423;-78
2023/03/22 07:36:03;;;;;;;17.90;8.93;;;;;;;;;;5041359;28;20421;-77
2023/03/22 07:38:29;;;;;;;14.93;7.82;;;;;;;;;;5049109;28;20775;-77
2023/03/22 07:40:55;;;;;;;15.73;8.25;;;;;;;;;;5034021;28;20427;-77
2023/03/22 07:43:21;;;;;;;16.25;7.88;;;;;;;;;;5027724;28;20490;-76
2023/03/22 07:45:49;;;;;;;15.90;8.02;;;10.70;99.90;;;;;;5048722;28;22079;-77
2023/03/22 07:48:15;;;;;;;13.68;8.02;;;;;;;;;;5031390;28;20432;-76
2023/03/22 07:50:41;;;;;;;13.25;7.93;;;;;;;;;;5048740;28;20469;-77
2023/03/22 07:53:08;;;;;;;12.90;7.60;;;;;;;;;;5033903;28;20776;-77
2023/03/22 07:55:34;;;;;;;14.70;8.38;;;;;;;;;;5047107;28;20414;-76
2023/03/22 07:58:00;;;;;;;15.68;7.80;;;;;;;;;;5045611;28;20428;-77
2023/03/22 08:00:27;;;;;;;16.65;7.80;;;;;;;;;;5010713;28;20483;-77
2023/03/22 08:02:53;;;;;;;14.50;7.60;;;;;;;;;;5041940;28;20431;-77
2023/03/22 08:05:21;;;;;;;15.70;7.47;;;;;;;;;;5023337;28;20412;-77
2023/03/22 08:07:47;;;;;;;14.07;7.90;;;;;;;;;;5032630;28;20417;-77
2023/03/22 08:10:13;;;;;;;15.05;7.10;;;;;;;;;;5027974;28;20464;-77
2023/03/22 08:12:40;;;;;;;13.45;7.05;;;;;;;;;;5048655;28;20914;-77
2023/03/22 08:15:06;;;;;;;13.85;7.00;;;;;;;;;;5023572;28;20931;-77
2023/03/22 08:17:32;;;;;;;14.88;7.25;;;;;;;;;;5064878;28;20423;-77
2023/03/22 08:19:58;;;;;;;12.93;6.60;;;;;;;;;;5008361;28;20893;-77
2023/03/22 08:22:28;;;;;;;14.25;7.15;;;;;;;;;;5052128;28;20949;-77
2023/03/22 08:24:54;;;;;;;14.77;6.90;;;;;;;;;;5019591;28;20764;-77
2023/03/22 08:27:20;;;;;;;16.40;7.53;;;;;;;;;;5046523;28;20629;-77
2023/03/22 08:29:47;;;;;;;14.80;6.75;;;;;;;;;;5033295;28;20481;-77
2023/03/22 08:32:15;;;;;;;15.50;6.45;;;;;;;;;;5028074;28;20425;-77
2023/03/22 08:34:42;;;;;;;14.18;6.13;;;;;;;;;;5043928;28;20490;-77
2023/03/22 08:37:09;;;;;;;12.63;6.28;;;;;;;;;;5050739;28;20550;-78
2023/03/22 08:39:35;;;;;;;11.40;6.30;;;;;;;;;;5043095;28;20430;-78
2023/03/22 08:42:01;;;;;;;11.85;5.63;;;;;;;;;;5037680;28;20424;-78
2023/03/22 08:44:28;;;;;;;12.23;5.75;;;;;;;;;;5018911;28;21080;-78
2023/03/22 08:46:54;;;;;;;11.82;5.50;;;;;;;;;;5043834;28;20919;-77
2023/03/22 08:49:20;;;;;;;12.93;6.10;;;;;;;;;;5047287;28;20425;-78
2023/03/22 08:51:47;;;;;;;14.13;6.03;;;;;;;;;;5026773;28;20504;-78
2023/03/22 08:54:13;;;;;;;12.88;5.60;;;;;;;;;;5046381;28;20489;-78
2023/03/22 08:56:40;;;;;;;14.73;6.10;;;;;;;;;;5050093;28;20411;-78
2023/03/22 08:59:07;;;;;;;10.13;5.53;;;;;;;;;;5029443;28;20416;-78
2023/03/22 09:01:34;;;;;;;10.93;5.10;;;;;;;;;;5048668;28;22014;-79
2023/03/22 09:04:00;;;;;;;14.27;5.43;;;;;;;;;;5035064;28;20425;-79
2023/03/22 09:06:26;;;;;;;14.70;5.50;;;;;;;;;;5003415;28;20407;-79
2023/03/22 09:08:53;;;;;;;13.07;4.90;;;;;;;;;;5040875;28;20421;-78
2023/03/22 09:11:19;;;;;;;14.20;5.80;;;;;;;;;;5050023;28;20509;-79
2023/03/22 09:13:46;;;;;;;11.98;5.00;;;;;;;;;;5047976;28;20496;-77
2023/03/22 09:16:13;;;;;;;11.45;4.88;;;;;;;;;;5052735;28;20421;-77
2023/03/22 09:18:39;;;;;;;14.77;4.88;;;;;;;;;;5036872;28;20854;-78
2023/03/22 09:21:07;;;;;;;13.35;4.70;;;;;;;;;;5036644;28;20428;-77
2023/03/22 09:23:35;;;;;;;11.57;4.78;;;11.40;99.90;;;;;;5057325;28;20417;-77
2023/03/22 09:26:02;;;;;;;10.73;4.75;;;;;;;;;;5054402;28;20492;-79
2023/03/22 09:28:28;;;;;;;10.65;4.53;;;;;;;;;;5013152;28;20440;-77
2023/03/22 09:30:54;;;;;;;10.93;4.85;;;;;;;;;;5025503;28;20423;-77
2023/03/22 09:33:20;;;;;;;16.48;5.05;;;;;;;;;;5043611;28;20765;-78
2023/03/22 09:35:46;;;;;;;12.93;4.70;;;;;;;;;;5047406;28;20887;-78
2023/03/22 09:38:12;;;;;;;13.30;4.85;;;;;;;;;;5034492;28;20779;-78
2023/03/22 09:40:59;;;;;;;12.90;4.88;;;;;;;;;;5032038;28;20440;-78
2023/03/22 09:43:28;;;;;;;12.50;5.07;;;;;;;;;;5044395;28;20475;-77
2023/03/22 09:45:54;;;;;;;14.00;4.60;;;;;;;;;;5031320;28;20912;-78
2023/03/22 09:48:26;;;;;;;12.48;4.38;;;11.10;99.90;;;;;;5051120;28;20418;-78
2023/03/22 09:50:53;;;;;;;14.15;4.88;;;;;;;;;;5028018;28;20482;-77
2023/03/22 09:53:19;;;;;;;12.10;4.40;;;;;;;;;;5030201;28;20558;-78
2023/03/22 09:55:50;;;;;;;12.00;4.45;;;;;;;;;;5049451;28;20420;-77
2023/03/22 09:58:19;;;;;;;12.90;4.82;;;;;;;;;;5047221;28;20465;-77
2023/03/22 10:00:47;;;;;;;12.27;5.00;;;;;;;;;;5033359;28;20412;-77
2023/03/22 10:03:25;;;;;;;14.27;5.17;;;;;;;;;;5033057;28;20428;-77
2023/03/22 10:06:13;;;;;;;10.60;4.88;;;10.90;99.90;;;;;;5053780;28;20423;-77
2023/03/22 10:08:46;;;;;;;13.05;5.18;;;10.40;99.90;;;;;;5033881;28;20422;-77
2023/03/22 10:11:39;;;;;;;13.73;5.10;;;;;;;;;;5034766;28;20427;-77
2023/03/22 10:14:27;;;;;;;12.27;5.60;;;;;;;;;;5031171;28;20949;-77
2023/03/22 10:16:55;;;;;;;15.63;6.05;;;;;;;;;;5036304;28;20416;-77
2023/03/22 10:19:28;;;;;;;14.00;5.68;;;10.70;99.90;;;;;;5048383;28;20415;-76
2023/03/22 10:21:55;;;;;;;15.20;5.32;;;;;;;;;;5053352;28;20424;-79
2023/03/22 10:24:32;;;;;;;15.60;6.75;;;;;;;;;;5048372;28;20413;-79
2023/03/22 10:26:58;;;;;;;11.18;5.28;;;;;;;;;;5049463;28;20424;-79
2023/03/22 10:29:37;;;;;;;13.63;5.55;;;;;;;;;;5054060;28;20453;-79
2023/03/22 10:32:17;;;;;;;11.43;5.60;;;10.50;99.90;;;;;;5051970;28;20431;-79
2023/03/22 10:34:43;;;;;;;16.05;5.97;;;;;;;;;;5050586;28;20423;-79
2023/03/22 10:37:17;;;;;;;13.30;5.38;;;;;;;;;;5052932;28;20504;-79
2023/03/22 10:39:45;;;;;;;15.80;5.43;;;;;;;;;;5045897;28;20423;-79
2023/03/22 10:42:13;;;;;;;15.43;5.55;;;;;;;;;;5025695;28;20978;-79
2023/03/22 10:45:02;;;;;;;11.75;5.95;;;;;;;;;;5049516;28;20614;-79
2023/03/22 10:47:31;;;;;;;14.55;5.90;;;;;;;;;;5048203;28;20923;-78
2023/03/22 10:49:58;;;;;;;12.68;5.75;;;;;;;;;;5050482;28;20408;-79
2023/03/22 10:52:30;;;;;;;11.63;5.57;;;;;;;;;;5036265;28;20424;-78
2023/03/22 10:54:57;;;;;;;10.77;5.25;;;;;;;;;;5052550;28;20477;-78
2023/03/22 10:57:27;;;;;;;11.45;5.43;;;;;;;;;;5018924;28;20502;-78
2023/03/22 10:59:55;;;;;;;11.32;5.40;;;;;;;;;;5053386;28;20943;-79
2023/03/22 11:02:26;;;;;;;13.77;5.80;;;;;;;;;;5033704;28;20423;-79
2023/03/22 11:05:21;;;;;;;12.63;5.70;;;10.50;99.90;;;;;;5049124;28;20415;-80
2023/03/22 11:07:48;;;;;;;12.90;5.88;;;;;;;;;;5036351;28;20806;-80
2023/03/22 11:10:20;;;;;;;14.98;6.10;;;;;;;;;;5050525;28;20416;-80
2023/03/22 11:12:55;;;;;;;13.05;5.72;;;;;;;;;;5034675;28;20456;-79
2023/03/22 11:15:21;;;;;;;12.73;6.25;;;;;;;;;;5025615;28;20457;-80
2023/03/22 11:17:47;;;;;;;13.10;5.93;;;;;;;;;;5050504;28;20519;-79
2023/03/22 11:20:16;;;;;;;13.52;5.95;;;;;;;;;;5049127;28;20416;-80
2023/03/22 11:22:43;;;;;;;10.70;6.00;;;;;;;;;;5050841;28;20923;-79
2023/03/22 11:25:14;;;;;;;13.05;6.03;;;10.30;99.90;;;;;;5050142;28;20416;-78
2023/03/22 11:27:49;;;;;;;13.43;6.30;;;;;;;;;;5027716;28;20441;-80
2023/03/22 11:30:21;;;;;;;12.37;5.83;;;;;;;;;;5035626;28;20506;-79
2023/03/22 11:32:48;;;;;;;12.15;5.65;;;;;;;;;;5033154;28;20423;-80
2023/03/22 11:35:16;;;;;;;12.43;5.60;;;;;;;;;;5037380;28;20427;-80
2023/03/22 11:37:44;;;;;;;12.48;5.80;;;;;;;;;;5052849;28;20935;-80
2023/03/22 11:40:14;;;;;;;11.57;5.13;;;;;;;;;;5052154;28;20420;-80
2023/03/22 11:42:40;;;;;;;9.73;5.25;;;;;;;;;;5046992;28;20420;-79
2023/03/22 11:45:07;;;;;;;12.52;5.63;;;;;;;;;;5048319;28;20762;-80
2023/03/22 11:47:37;;;;;;;10.07;5.03;;;;;;;;;;5038885;28;20435;-78
2023/03/22 11:50:08;;;;;;;9.23;4.95;;;;;;;;;;5032583;28;20881;-80
2023/03/22 11:52:35;;;;;;;9.52;4.88;;;;;;;;;;5035731;28;20435;-80
2023/03/22 11:55:01;;;;;;;10.15;4.68;;;;;;;;;;5050642;28;20879;-80
2023/03/22 11:57:30;;;;;;;11.93;5.10;;;;;;;;;;5051406;28;20490;-80
2023/03/22 12:00:10;;;;;;;10.85;5.07;;;;;;;;;;5031081;28;20976;-80
2023/03/22 12:02:46;;;;;;;9.60;4.90;;;;;;;;;;5044274;28;20428;-81
2023/03/22 12:05:17;;;;;;;8.07;5.17;;;;;;;;;;5034877;28;20423;-79
2023/03/22 12:07:44;;;;;;;10.18;5.45;;;;;;;;;;5030885;28;20424;-79
2023/03/22 12:10:10;;;;;;;10.32;4.93;;;;;;;;;;5032174;28;20449;-79
2023/03/22 12:12:43;;;;;;;10.20;4.65;;;11.10;99.90;;;;;;5051024;28;20490;-78
2023/03/22 12:15:12;;;;;;;8.13;4.88;;;;;;;;;;5037547;28;20454;-79
2023/03/22 12:17:44;;;;;;;12.43;4.75;;;;;;;;;;5034539;28;20419;-79
2023/03/22 12:20:30;;;;;;;10.10;4.40;;;10.60;99.90;;;;;;5024821;28;20916;-79
2023/03/22 12:22:56;;;;;;;9.23;4.47;;;;;;;;;;5068612;28;20420;-78
2023/03/22 12:25:24;;;;;;;10.82;4.53;;;;;;;;;;5046520;28;20545;-78
2023/03/22 12:27:53;;;;;;;10.88;4.60;;;;;;;;;;5030999;28;20506;-78
2023/03/22 12:30:20;;;;;;;11.13;4.50;;;10.50;99.90;;;;;;5050145;28;20496;-79
2023/03/22 12:32:50;;;;;;;12.30;4.88;;;;;;;;;;5050181;28;20439;-79
2023/03/22 12:35:25;;;;;;;10.98;4.85;;;11.20;99.90;;;;;;5050604;28;20513;-79
2023/03/22 12:37:53;;;;;;;12.43;4.95;;;;;;;;;;5032974;28;20437;-80
2023/03/22 12:40:22;;;;;;;10.63;5.60;;;;;;;;;;5046482;28;20800;-79
2023/03/22 12:42:56;;;;;;;9.50;5.72;;;;;;;;;;5048557;28;20515;-79
2023/03/22 12:45:26;;;;;;;11.85;5.78;;;10.60;99.90;;;;;;5050114;28;20507;-79
2023/03/22 12:47:56;;;;;;;10.80;5.53;;;;;;;;;;5034084;28;20429;-80
2023/03/22 12:50:25;;;;;;;15.87;6.60;;;;;;;;;;5044858;28;20445;-80
2023/03/22 12:52:53;;;;;;;12.45;7.13;;;;;;;;;;5011833;28;20417;-79
2023/03/22 12:55:26;;;;;;;13.40;7.27;;;;;;;;;;5035706;28;20429;-80
2023/03/22 12:57:53;;;;;;;16.95;7.38;;;;;;;;;;5016614;28;20429;-79
2023/03/22 13:00:21;;;;;;;13.07;7.75;;;;;;;;;;5013160;28;20425;-79
2023/03/22 13:03:19;;;;;;;16.40;8.38;;;10.50;99.90;;;;;;5030340;28;20452;-80
2023/03/22 13:05:47;;;;;;;16.42;8.10;;;;;;;;;;5030244;28;20410;-80
2023/03/22 13:08:18;;;;;;;15.77;7.90;;;10.70;99.90;;;;;;5034535;28;20417;-79
2023/03/22 13:10:49;;;;;;;17.60;8.20;;;;;;;;;;5046275;28;20440;-79
2023/03/22 13:13:18;;;;;;;13.80;8.40;;;;;;;;;;5017953;28;20512;-79
2023/03/22 13:15:57;;;;;;;16.05;7.63;;;;;;;;;;5013618;28;20465;-79
2023/03/22 13:18:36;;;;;;;14.20;7.47;;;;;;;;;;5017742;28;20432;-78
2023/03/22 13:21:13;;;;;;;14.10;7.93;;;;;;;;;;5033739;28;20425;-78
2023/03/22 13:23:52;;;;;;;14.23;7.37;;;;;;;;;;5033035;28;20537;-78
2023/03/22 13:26:19;;;;;;;15.23;8.13;;;;;;;;;;5010882;28;20433;-78
2023/03/22 13:28:58;;;;;;;14.43;7.55;;;;;;;;;;5027190;28;20763;-79
2023/03/22 13:31:40;;;;;;;14.55;7.88;;;;;;;;;;5013453;28;20523;-79
2023/03/22 13:34:12;;;;;;;13.13;8.55;;;;;;;;;;5013053;28;20908;-79
2023/03/22 13:36:39;;;;;;;11.90;8.13;;;;;;;;;;5027935;28;20846;-78
2023/03/22 13:39:08;;;;;;;13.80;8.05;;;;;;;;;;5033881;28;20456;-79
2023/03/22 13:41:35;;;;;;;14.02;8.38;;;;;;;;;;5030895;28;20785;-79
2023/03/22 13:44:02;;;;;;;10.90;7.90;;;;;;;;;;4998440;28;20421;-78
2023/03/22 13:46:50;;;;;;;12.73;8.30;;;10.30;99.90;;;;;;5012991;28;20457;-79
2023/03/22 13:49:43;;;;;;;13.52;8.10;;;10.40;99.90;;;;;;5048573;28;20460;-79
2023/03/22 13:52:21;;;;;;;14.93;8.70;;;;;;;;;;5050749;28;20413;-78
2023/03/22 13:54:48;;;;;;;19.92;9.18;;;;;;;;;;5043820;28;20516;-78
2023/03/22 13:57:38;;;;;;;16.30;8.43;;;10.40;99.90;;;;;;5048878;28;20439;-79
2023/03/22 14:00:16;;;;;;;13.80;8.57;;;10.60;99.90;;;;;;5045427;28;20547;-79
2023/03/22 14:02:42;;;;;;;13.55;8.10;;;;;;;;;;5027648;28;20425;-79
2023/03/22 14:05:13;;;;;;;13.00;8.15;;;;;;;;;;5027979;28;20428;-79
2023/03/22 14:07:39;;;;;;;15.43;8.50;;;;;;;;;;5045381;28;20415;-78
2023/03/22 14:10:05;;;;;;;12.40;8.27;;;;;;;;;;5041730;28;20459;-80
2023/03/22 14:12:48;;;;;;;15.05;8.32;;;;;;;;;;5042564;28;20806;-80
2023/03/22 14:15:15;;;;;;;16.90;8.60;;;;;;;;;;5040946;28;20421;-78
2023/03/22 14:17:48;;;;;;;13.13;8.63;;;;;;;;;;5061088;28;20526;-79
2023/03/22 14:20:23;;;;;;;13.55;8.52;;;10.40;99.90;;;;;;5025681;28;20418;-78
2023/03/22 14:23:07;;;;;;;12.23;7.82;;;;;;;;;;5043489;28;20819;-79
2023/03/22 14:25:34;;;;;;;13.13;7.80;;;;;;;;;;5027751;28;20440;-78
2023/03/22 14:28:00;;;;;;;13.15;9.00;;;;;;;;;;5047337;28;20417;-78
2023/03/22 14:30:26;;;;;;;14.05;8.75;;;;;;;;;;5048449;28;20417;-79
2023/03/22 14:32:57;;;;;;;14.07;8.68;;;;;;;;;;5049265;28;20405;-79